Aviation Digital Data Service (ADDS)

Output produced by METARs form (2239 UTC 30 March 2017)
found at http://www.aviationweather.gov/adds/metars/
 
ZBHH 302200Z 06002MPS CAVOK M04/M09 Q1028 NOSIG
TAF ZBHH 301904Z 3100/3124 23004MPS CAVOK TX11/3107Z TNM04/22Z
       
ZGGG 302230Z 10002MPS 060V140 5000 -TSRA FEW011 FEW033CB BKN033 20/19 Q1014 RESHRA BECMG AT2330 -SHRA
TAF ZGGG 302104Z 3100/3124 36004MPS 6000 -RA SCT011 OVC030 TX22/3107Z TN16/3122Z 
     TEMPO 3100/3104 2000 TSRA SCT011 SCT026CB BKN030 
     TEMPO 3104/3110 2500 SHRA SCT011 FEW030CB BKN030
       
ZGSZ 302200Z 23002MPS 2800 BR SCT014 BKN023 22/21 Q1013 BECMG FM2340 3500
TAF ZGSZ 301913Z 3100/3124 14004MPS 6000 BKN040 TX25/3104Z TN17/3122Z 
     TEMPO 3101/3105 33008G13MPS 2000 TSRA SCT011 FEW020CB OVC030 
     BECMG 3102/3103 36007MPS
       
ZBTJ 302230Z 31002MPS 5000 HZ NSC 08/01 Q1028 NOSIG
TAF ZBTJ 301926Z 3100/3124 34004MPS 3500 HZ NSC TX16/3107Z TN06/3121Z
       
ZBAA 302230Z 34004MPS CAVOK 04/M06 Q1028 NOSIG
TAF ZBAA 302120Z 3100/3124 34004MPS CAVOK TX17/3107Z TN05/3121Z
       
ZSFZ 302200Z 00000MPS 1200 R21/1600D BR SCT001 OVC002 15/15 Q1013 NOSIG
TAF ZSFZ 301937Z 3100/3124 03007G12MPS 2500 RA BR BKN005 OVC015 TX16/3106Z TN14/3121Z
       
ZYCC 302200Z 21001MPS 2000 FU NSC M04/M09 Q1024 BECMG TL2330 3000
TAF ZYCC 301908Z 3100/3124 30004MPS 4000 FU FEW023 TX10/3106Z TNM05/22Z
       
ZWWW 302230Z 12002MPS CAVOK 11/05 Q1030 NOSIG
TAF ZWWW 302119Z 3100/3124 15003MPS CAVOK TX20/3108Z TN06/3123Z 
     BECMG 3103/3104 36003MPS 
     BECMG 3113/3114 18003MPS
       
ZSAM 302200Z 21001MPS 4000 BR BKN018 OVC040 19/15 Q1013 NOSIG
TAF ZSAM 301923Z 3100/3124 20003MPS 5000 BR BKN030 TX25/3105Z TN12/3121Z 
     BECMG 3107/3108 06006G12MPS 
     TEMPO 3104/3110 2000 TSRA BR BKN010 SCT023CB OVC025 
     TEMPO 3110/3116 3000 SHRA BR SCT008 FEW025CB BKN026
       
ZSSS 302230Z 36006MPS 9999 BKN016 08/06 Q1021 NOSIG
TAF COR ZSSS 301930Z 3100/3124 02006MPS 3000 -RA BR BKN009 TX14/3106Z TN09/3121Z 
     BECMG 3100/3101 BKN015
       
ZGHA 302200Z 01005MPS 6000 BKN020 12/08 Q1022 NOSIG
TAF ZGHA 301917Z 3100/3124 33004MPS 3500 BR BKN015 OVC050 TX18/3106Z TN11/3122Z
       
ZUCK 302200Z 01002MPS 3500 BR NSC 14/12 Q1023 NOSIG
TAF ZUCK 301906Z 3100/3124 12003MPS 3500 BR SCT030 TX22/3107Z TN14/3122Z
       
ZWSH 302200Z 28003MPS CAVOK 11/01 Q1023 NOSIG
TAF ZWSH 302136Z 3100/3124 33004MPS 9999 SCT040 TX20/3109Z TN10/3100Z 
     BECMG 3105/3106 15004MPS FEW040 
     BECMG 3111/3112 18004MPS
       
ZGKL 302200Z VRB02MPS 9999 BKN050 14/12 Q1020 NOSIG
TAF ZGKL 301913Z 3100/3124 04005MPS 8000 SCT030 OVC050 TX18/3107Z TN14/3123Z
       
ZSNB 302200Z 35003MPS 320V030 6000 -RA SCT007 BKN016 09/09 Q1020 NOSIG
TAF ZSNB 301935Z 3100/3124 36005G11MPS 5000 -RA BR FEW006 BKN020 TX12/3106Z TN08/3121Z
       
ZSQD 302200Z 34004MPS 6000 NSC 05/02 Q1024 NOSIG
TAF ZSQD 302114Z 3100/3124 35006MPS 3500 BR NSC TX15/3106Z TN03/3121Z 
     BECMG 3109/3110 33003MPS
       
ZSNJ 302200Z 04002MPS 360V070 6000 NSC 08/06 Q1023 NOSIG
TAF ZSNJ 301903Z 3100/3124 05004MPS 3000 HZ FEW026 TX17/3106Z TN05/3121Z
       
ZSOF 302200Z 36002MPS 1600 BR FEW016 06/06 Q1024 BECMG AT2230 1400 BR
TAF ZSOF 301902Z 3100/3124 02004MPS 3000 HZ NSC TX15/3107Z TN06/3122Z
       
ZJHK 302200Z 22002MPS 190V270 4500 BR BCFG SCT004 24/23 Q1012 NOSIG
TAF ZJHK 301922Z 3100/3124 14004MPS 6000 SCT020 TX28/3107Z TN21/3121Z 
     BECMG 3106/3107 06005MPS BKN010 FEW026CB BKN030 
     BECMG 3115/3116 SCT020 
     TEMPO 3104/3109 2000 +TSRA 
     TEMPO 3110/3116 SHRA
       
ZJSY 302200Z 00000MPS 9999 SCT015 24/22 Q1012 NOSIG
TAF ZJSY 301913Z 3100/3124 15004MPS 9999 FEW020 TX31/3106Z TN24/3121Z 
     TEMPO 3106/3112 SHRA SCT015 FEW025CB BKN040
       
ZSPD 302230Z 36009MPS 9999 BKN015 08/06 Q1021 NOSIG
TAF ZSPD 302112Z 3100/3124 36006MPS 5000 BR BKN013 TX13/3106Z TN08/3122Z
       
ZUUU 302200Z 00000MPS 4000 BR SCT040 15/14 Q1023 NOSIG
TAF ZUUU 302004Z 3100/3124 22003MPS 5000 BR SCT050 TX24/3107Z TN14/3122Z
       
ZYHB 302200Z 20002MPS 7000 NSC M02/M07 Q1022 NOSIG
TAF ZYHB 301915Z 3100/3124 30003MPS 6000 SCT030 TX09/3106Z TNM01/21Z
       
ZYTX 302230Z 03002MPS 5000 FU NSC 01/M06 Q1024 NOSIG
TAF ZYTX 301905Z 3100/3124 06004MPS 6000 NSC TX14/3106Z TNM01/21Z
       
ZHHH 302200Z 01003MPS 6000 NSC 09/08 Q1024 NOSIG
TAF ZHHH 301912Z 3100/3124 02004MPS 3000 BR NSC TX18/3107Z TN08/3122Z
       
ZPPP 302200Z 03008MPS 6000 -SHRA FEW007 FEW020TCU SCT020 OVC040 05/05 Q1026 NOSIG
TAF ZPPP 301904Z 3100/3124 04006MPS 4000 -SHRA BR SCT023 BKN033 TX14/3108Z TN06/3123Z
       
ZBYN 302230Z 01002MPS 330V070 CAVOK 04/M04 Q1026 NOSIG
TAF ZBYN 301907Z 3100/3124 32004MPS 3000 HZ NSC TX15/3107Z TN00/3122Z
       
ZGNN 302200Z 36004MPS 9999 BKN040 19/16 Q1015 NOSIG
TAF ZGNN 301912Z 3100/3124 03003MPS 6000 SCT010 OVC030 TX22/3107Z TN14/3122Z 
     TEMPO 3100/3104 SCT007 FEW026CB OVC030
       
ZLXY 302200Z 26001MPS 7000 NSC 03/02 Q1024 NOSIG
TAF ZLXY 301905Z 3100/3124 06003MPS 3000 HZ NSC TX19/3107Z TN05/3122Z 
     TEMPO 3110/3116 2400 -SHRA BR FEW040CB
       
ZSHC 302230Z 36004MPS 330V040 8000 SCT010 BKN023 09/08 Q1022 NOSIG
TAF ZSHC 301931Z 3100/3124 36005G12MPS 3000 BR FEW007 BKN020 TX14/3106Z TN07/3121Z
       
ZHCC 302200Z 02003MPS 0500 R12R/1700U R12L/0900V1100N FG VV003 08/08 Q1026 NOSIG
TAF ZHCC 301904Z 3100/3124 03003MPS 0500 FG OVC040 TX16/3107Z TN05/3122Z 
     BECMG 3101/3102 1000 BR 
     BECMG 3102/3103 1600
       
ZBSJ 302200Z 00000MPS 3000 BR NSC 03/03 Q1028 NOSIG
TAF ZBSJ 301910Z 3100/3124 33004MPS 3500 HZ NSC TX17/3106Z TN04/3121Z
       
ZLLL 302200Z 33003MPS CAVOK M04/M06 Q1026 NOSIG
TAF ZLLL 301931Z 3100/3124 02003MPS CAVOK TX13/3109Z TNM05/23Z
       
ZYTL 302230Z 32004MPS 280V350 CAVOK 05/M01 Q1024 NOSIG
TAF ZYTL 301907Z 3100/3124 01006G12MPS CAVOK TX12/3106Z TN05/3121Z